Time;durP1;ratioP1;P1;durP2;ratioP2;P2;SDS_P1;SDS_P2;PMS_P1;PMS_P2;Temp;Humidity;BMP_temperature;BMP_pressure;BME280_temperature;BME280_humidity;BME280_pressure;Samples;Min_cycle;Max_cycle;Signal;HPM_P1;HPM_P2
2022/11/28 00:00:52;;;;;;;31.52;17.63;;;5.00;99.90;;;;;;5013978;28;20080;-69
2022/11/28 00:03:18;;;;;;;45.35;18.05;;;5.00;99.90;;;;;;5013826;28;20033;-69
2022/11/28 00:05:43;;;;;;;31.52;17.13;;;5.00;99.90;;;;;;5013453;28;20081;-68
2022/11/28 00:08:09;;;;;;;34.15;18.15;;;5.00;99.90;;;;;;5013737;28;20122;-69
2022/11/28 00:10:39;;;;;;;39.20;17.00;;;5.00;99.90;;;;;;5013281;28;20022;-69
2022/11/28 00:13:04;;;;;;;32.47;18.20;;;5.00;99.90;;;;;;5013843;28;20018;-69
2022/11/28 00:15:30;;;;;;;41.25;18.38;;;5.00;99.90;;;;;;5013603;28;20022;-68
2022/11/28 00:17:55;;;;;;;34.35;15.90;;;5.00;99.90;;;;;;5012928;28;20030;-69
2022/11/28 00:20:21;;;;;;;40.72;17.20;;;5.00;99.90;;;;;;5013720;28;20029;-68
2022/11/28 00:22:46;;;;;;;33.72;17.30;;;5.00;99.90;;;;;;5013529;28;20386;-69
2022/11/28 00:25:12;;;;;;;42.35;17.10;;;5.00;99.90;;;;;;5013956;28;20374;-69
2022/11/28 00:27:37;;;;;;;34.40;16.88;;;5.00;99.90;;;;;;5013734;28;20037;-69
2022/11/28 00:30:03;;;;;;;49.90;18.35;;;5.10;99.90;;;;;;5013343;28;20033;-68
2022/11/28 00:32:29;;;;;;;40.47;17.13;;;5.10;99.90;;;;;;5013965;28;20022;-69
2022/11/28 00:34:54;;;;;;;36.40;17.17;;;5.00;99.90;;;;;;5013639;28;20390;-69
2022/11/28 00:37:20;;;;;;;34.35;16.95;;;5.00;99.90;;;;;;5013760;28;20080;-69
2022/11/28 00:39:45;;;;;;;34.20;17.17;;;5.00;99.90;;;;;;5013428;28;20109;-69
2022/11/28 00:42:11;;;;;;;36.03;17.42;;;5.00;99.90;;;;;;5013536;28;20374;-69
2022/11/28 00:44:36;;;;;;;40.13;18.50;;;5.10;99.90;;;;;;5012904;28;20038;-69
2022/11/28 00:47:02;;;;;;;37.35;17.75;;;5.10;99.90;;;;;;5013455;28;20080;-69
2022/11/28 00:49:27;;;;;;;38.13;17.70;;;5.00;99.90;;;;;;5013677;28;20022;-69
2022/11/28 00:51:53;;;;;;;33.80;17.60;;;5.00;99.90;;;;;;5013445;28;20030;-69
2022/11/28 00:54:18;;;;;;;34.25;17.75;;;5.00;99.90;;;;;;5012842;28;20037;-69
2022/11/28 00:56:44;;;;;;;36.92;18.50;;;5.00;99.90;;;;;;5013369;28;20026;-69
2022/11/28 00:59:09;;;;;;;30.27;16.95;;;5.00;99.90;;;;;;5013318;28;20052;-69
2022/11/28 01:01:40;;;;;;;51.70;18.17;;;5.00;99.90;;;;;;5013623;28;20540;-69
2022/11/28 01:04:09;;;;;;;40.33;18.27;;;5.10;99.90;;;;;;5013251;28;20030;-69
2022/11/28 01:06:38;;;;;;;42.42;18.10;;;5.10;99.90;;;;;;5012610;28;20022;-69
2022/11/28 01:09:10;;;;;;;34.47;16.45;;;5.10;99.90;;;;;;5013233;28;20026;-69
2022/11/28 01:11:38;;;;;;;41.53;16.88;;;5.10;99.90;;;;;;5013289;28;20508;-69
2022/11/28 01:14:04;;;;;;;37.60;16.45;;;5.00;99.90;;;;;;5013516;28;20033;-69
2022/11/28 01:16:29;;;;;;;37.88;18.58;;;5.10;99.90;;;;;;5013204;28;20022;-69
2022/11/28 01:18:55;;;;;;;49.55;19.52;;;5.00;99.90;;;;;;5012423;28;20044;-69
2022/11/28 01:21:21;;;;;;;44.17;18.42;;;5.00;99.90;;;;;;5013296;28;20112;-69
2022/11/28 01:23:47;;;;;;;34.10;18.33;;;5.00;99.90;;;;;;5016141;28;20190;-69
2022/11/28 01:26:17;;;;;;;33.63;18.08;;;5.00;99.90;;;;;;5016673;28;20464;-69
2022/11/28 01:28:43;;;;;;;38.38;18.67;;;5.10;99.90;;;;;;5016304;28;20022;-69
2022/11/28 01:31:12;;;;;;;37.67;18.38;;;5.10;99.90;;;;;;5017241;28;20044;-69
2022/11/28 01:33:38;;;;;;;40.90;18.23;;;5.10;99.90;;;;;;5016712;28;20489;-69
2022/11/28 01:36:04;;;;;;;30.67;19.13;;;5.10;99.90;;;;;;5016896;28;20080;-69
2022/11/28 01:38:30;;;;;;;35.45;17.83;;;5.10;99.90;;;;;;5016751;28;20030;-69
2022/11/28 01:40:56;;;;;;;43.47;19.42;;;5.10;99.90;;;;;;5016799;28;20262;-69
2022/11/28 01:43:23;;;;;;;38.20;19.85;;;5.10;99.90;;;;;;5016130;28;20370;-69
2022/11/28 01:45:49;;;;;;;42.15;19.60;;;5.10;99.90;;;;;;5016657;28;20030;-69
2022/11/28 01:48:23;;;;;;;45.13;20.15;;;5.10;99.90;;;;;;5016615;28;20029;-69
2022/11/28 01:50:53;;;;;;;41.38;19.05;;;5.10;99.90;;;;;;5016523;28;20018;-69
2022/11/28 01:53:19;;;;;;;49.65;18.60;;;5.10;99.90;;;;;;5016112;28;20026;-69
2022/11/28 01:55:56;;;;;;;44.35;18.88;;;5.10;99.90;;;;;;5016493;28;20030;-69
2022/11/28 01:58:24;;;;;;;33.67;18.30;;;5.10;99.90;;;;;;5016970;28;20474;-69
2022/11/28 02:00:50;;;;;;;37.75;18.15;;;5.10;99.90;;;;;;5016636;28;20026;-69
2022/11/28 02:03:22;;;;;;;40.20;18.75;;;5.10;99.90;;;;;;5016272;28;20041;-69
2022/11/28 02:05:49;;;;;;;34.97;16.77;;;5.10;99.90;;;;;;5015767;28;20497;-69
2022/11/28 02:08:15;;;;;;;34.80;17.30;;;5.10;99.90;;;;;;5016463;28;20095;-69
2022/11/28 02:10:50;;;;;;;30.88;17.55;;;5.20;99.90;;;;;;5014939;28;20485;-69
2022/11/28 02:13:45;;;;;;;33.35;18.35;;;5.20;99.90;;;;;;5016188;28;20037;-69
2022/11/28 02:16:47;;;;;;;35.38;17.73;;;5.20;99.90;;;;;;5010349;28;20061;-69
2022/11/28 02:20:10;;;;;;;39.83;17.83;;;5.20;99.90;;;;;;5015988;28;20048;-69
2022/11/28 02:23:01;;;;;;;42.38;17.60;;;5.10;99.90;;;;;;4975162;28;20525;-68
2022/11/28 02:25:43;;;;;;;39.28;17.23;;;5.10;99.90;;;;;;4975206;28;20577;-69
2022/11/28 02:29:00;;;;;;;41.55;17.52;;;5.20;99.90;;;;;;5010087;28;20508;-69
2022/11/28 02:31:25;;;;;;;31.58;17.33;;;5.20;99.90;;;;;;4974824;28;20070;-69
2022/11/28 02:33:58;;;;;;;43.85;17.52;;;5.10;99.90;;;;;;5006588;28;20038;-69
2022/11/28 02:36:32;;;;;;;38.50;16.65;;;5.10;99.90;;;;;;5016031;28;20026;-69
2022/11/28 02:39:17;;;;;;;31.63;17.08;;;5.20;99.90;;;;;;5015529;28;20363;-69
2022/11/28 02:41:50;;;;;;;34.90;17.35;;;5.10;99.90;;;;;;5015662;28;20532;-69
2022/11/28 02:44:27;;;;;;;28.27;15.52;;;5.10;99.90;;;;;;5015700;28;20038;-69
2022/11/28 02:47:01;;;;;;;36.15;17.05;;;5.10;99.90;;;;;;5015875;28;20018;-69
2022/11/28 02:49:39;;;;;;;43.03;16.17;;;5.10;99.90;;;;;;5015392;28;20117;-69
2022/11/28 02:52:28;;;;;;;41.72;16.52;;;5.10;99.90;;;;;;5014265;28;20485;-69
2022/11/28 02:54:54;;;;;;;32.88;15.40;;;5.10;99.90;;;;;;5008499;28;20121;-69
2022/11/28 02:57:19;;;;;;;42.65;15.80;;;5.10;99.90;;;;;;5015388;28;20033;-69
2022/11/28 02:59:48;;;;;;;35.28;16.38;;;5.10;99.90;;;;;;5015171;28;20474;-69
2022/11/28 03:02:21;;;;;;;23.50;14.95;;;5.10;99.90;;;;;;5015252;28;20030;-69
2022/11/28 03:04:57;;;;;;;37.07;16.03;;;5.10;99.90;;;;;;5015145;28;20033;-69
2022/11/28 03:07:30;;;;;;;29.55;14.52;;;5.10;99.90;;;;;;5015145;28;20314;-69
2022/11/28 03:10:14;;;;;;;35.35;15.52;;;5.10;99.90;;;;;;5014358;28;20505;-69
2022/11/28 03:13:09;;;;;;;38.13;15.77;;;5.10;99.90;;;;;;5013849;28;20393;-69
2022/11/28 03:15:53;;;;;;;38.40;16.10;;;5.10;99.90;;;;;;5015324;28;20081;-69
2022/11/28 03:18:28;;;;;;;28.40;14.70;;;5.10;99.90;;;;;;5014178;28;20034;-69
2022/11/28 03:20:55;;;;;;;35.55;14.68;;;5.00;99.90;;;;;;5015156;28;20060;-69
2022/11/28 03:23:47;;;;;;;32.05;14.85;;;5.00;99.90;;;;;;5014786;28;20080;-69
2022/11/28 03:26:40;;;;;;;27.17;15.15;;;5.00;99.90;;;;;;5015133;28;20053;-69
2022/11/28 03:29:24;;;;;;;29.60;13.95;;;5.00;99.90;;;;;;5014287;28;20061;-69
2022/11/28 03:31:55;;;;;;;25.92;14.13;;;5.00;99.90;;;;;;5014819;28;20037;-69
2022/11/28 03:34:23;;;;;;;24.95;13.65;;;5.00;99.90;;;;;;5014998;28;20417;-69
2022/11/28 03:37:06;;;;;;;34.22;15.80;;;5.00;99.90;;;;;;5014639;28;20033;-69
2022/11/28 03:39:39;;;;;;;31.30;14.73;;;5.00;99.90;;;;;;5014531;28;20109;-69
2022/11/28 03:42:19;;;;;;;29.08;13.10;;;5.00;99.90;;;;;;5014329;28;20037;-69
2022/11/28 03:44:51;;;;;;;30.05;15.10;;;5.00;99.90;;;;;;5014679;28;20121;-69
2022/11/28 03:47:17;;;;;;;30.92;13.80;;;5.00;99.90;;;;;;5013306;28;20101;-69
2022/11/28 03:49:50;;;;;;;31.23;13.13;;;5.00;99.90;;;;;;5014192;28;20108;-68
2022/11/28 03:52:25;;;;;;;29.88;13.02;;;5.00;99.90;;;;;;5014299;28;20104;-69
2022/11/28 03:54:58;;;;;;;26.20;12.80;;;5.00;99.90;;;;;;5014676;28;20052;-69
2022/11/28 03:57:41;;;;;;;28.88;14.45;;;5.00;99.90;;;;;;5014186;28;20025;-69
2022/11/28 04:00:10;;;;;;;26.40;12.45;;;5.10;99.90;;;;;;5014205;28;20037;-69
2022/11/28 04:03:09;;;;;;;24.30;13.05;;;5.10;99.90;;;;;;5014103;28;20069;-69
2022/11/28 04:05:53;;;;;;;30.30;12.98;;;5.10;99.90;;;;;;5013602;28;20095;-69
2022/11/28 04:08:41;;;;;;;20.75;12.10;;;5.10;99.90;;;;;;5014067;28;20026;-69
2022/11/28 04:11:14;;;;;;;24.77;11.77;;;5.10;99.90;;;;;;5014335;28;20117;-69
2022/11/28 04:13:49;;;;;;;29.90;12.27;;;5.10;99.90;;;;;;5013507;28;20026;-69
2022/11/28 04:16:35;;;;;;;29.45;12.52;;;5.10;99.90;;;;;;5014267;28;20121;-69
2022/11/28 04:19:28;;;;;;;26.58;12.43;;;5.10;99.90;;;;;;5013876;28;20512;-69
2022/11/28 04:22:03;;;;;;;21.05;11.40;;;5.10;99.90;;;;;;5011786;28;20066;-68
2022/11/28 04:24:35;;;;;;;21.75;11.13;;;5.10;99.90;;;;;;5013440;28;20034;-69
2022/11/28 04:27:05;;;;;;;26.70;11.13;;;5.20;99.90;;;;;;5014096;28;20060;-69
2022/11/28 04:29:36;;;;;;;21.98;11.40;;;5.20;99.90;;;;;;5013550;28;20014;-69
2022/11/28 04:32:03;;;;;;;25.35;10.40;;;5.20;99.90;;;;;;5013751;28;20096;-69
2022/11/28 04:34:31;;;;;;;25.73;11.90;;;5.20;99.90;;;;;;5013109;28;20106;-69
2022/11/28 04:36:59;;;;;;;18.88;10.52;;;5.20;99.90;;;;;;5013653;28;20117;-69
2022/11/28 04:39:27;;;;;;;20.25;10.73;;;5.30;99.90;;;;;;5013464;28;20033;-69
2022/11/28 04:42:09;;;;;;;24.38;10.50;;;5.30;99.90;;;;;;5014145;28;20018;-69
2022/11/28 04:44:49;;;;;;;24.67;10.60;;;5.30;99.90;;;;;;5013496;28;20433;-69
2022/11/28 04:47:15;;;;;;;22.38;9.73;;;5.30;99.90;;;;;;5013887;28;20386;-69
2022/11/28 04:49:40;;;;;;;22.50;11.13;;;5.30;99.90;;;;;;5013468;28;20018;-69
2022/11/28 04:52:18;;;;;;;22.40;10.98;;;5.30;99.90;;;;;;5013299;28;20137;-69
2022/11/28 04:54:56;;;;;;;29.27;11.30;;;5.30;99.90;;;;;;5013761;28;20022;-69
2022/11/28 04:57:34;;;;;;;23.90;11.13;;;5.30;99.90;;;;;;5012458;28;20026;-69
2022/11/28 05:00:22;;;;;;;22.15;10.15;;;5.40;99.90;;;;;;5013845;28;20029;-69
2022/11/28 05:02:51;;;;;;;21.33;10.20;;;5.40;99.90;;;;;;5011677;28;20175;-69
2022/11/28 05:05:20;;;;;;;18.30;10.63;;;5.40;99.90;;;;;;5013146;28;20482;-68
2022/11/28 05:07:45;;;;;;;20.10;9.73;;;5.40;99.90;;;;;;5013097;28;20022;-69
2022/11/28 05:10:12;;;;;;;18.13;10.27;;;5.40;99.90;;;;;;5012731;28;20017;-69
2022/11/28 05:12:38;;;;;;;22.55;10.32;;;5.40;99.90;;;;;;5013306;28;20469;-69
2022/11/28 05:15:04;;;;;;;22.67;10.02;;;5.40;99.90;;;;;;5013232;28;20108;-69
2022/11/28 05:17:30;;;;;;;18.33;9.10;;;5.40;99.90;;;;;;5013338;28;20065;-68
2022/11/28 05:19:55;;;;;;;17.95;10.10;;;5.40;99.90;;;;;;5013224;28;20077;-69
2022/11/28 05:22:21;;;;;;;27.15;10.35;;;5.40;99.90;;;;;;5013173;28;20088;-69
2022/11/28 05:24:47;;;;;;;17.67;8.65;;;5.40;99.90;;;;;;5012668;28;20040;-69
2022/11/28 05:27:12;;;;;;;18.25;9.25;;;5.40;99.90;;;;;;5013692;28;20030;-69
2022/11/28 05:29:42;;;;;;;29.73;10.07;;;5.40;99.90;;;;;;5013171;28;20440;-69
2022/11/28 05:32:08;;;;;;;26.30;9.98;;;5.40;99.90;;;;;;5013364;28;20064;-69
2022/11/28 05:34:34;;;;;;;18.73;8.98;;;5.40;99.90;;;;;;5012973;28;20371;-69
2022/11/28 05:37:00;;;;;;;20.88;10.05;;;5.40;99.90;;;;;;5012622;28;20022;-68
2022/11/28 05:39:25;;;;;;;16.80;9.77;;;5.40;99.90;;;;;;5013001;28;20508;-68
2022/11/28 05:41:53;;;;;;;18.00;9.40;;;5.30;99.90;;;;;;5013225;28;20033;-69
2022/11/28 05:44:18;;;;;;;25.02;10.75;;;5.40;99.90;;;;;;5013478;28;20521;-69
2022/11/28 05:46:44;;;;;;;21.70;10.65;;;5.30;99.90;;;;;;5011701;28;20057;-69
2022/11/28 05:49:09;;;;;;;18.35;9.95;;;5.30;99.90;;;;;;5012352;28;20029;-69
2022/11/28 05:51:35;;;;;;;17.85;10.15;;;5.30;99.90;;;;;;5012946;28;20387;-69
2022/11/28 05:54:00;;;;;;;22.55;10.18;;;5.30;99.90;;;;;;5012925;28;20029;-69
2022/11/28 05:56:26;;;;;;;19.63;9.57;;;5.40;99.90;;;;;;5012959;28;20022;-68
2022/11/28 05:58:53;;;;;;;20.77;8.68;;;5.40;99.90;;;;;;5012227;28;20033;-69
2022/11/28 06:01:21;;;;;;;22.38;10.85;;;5.30;99.90;;;;;;5012843;28;20061;-67
2022/11/28 06:03:47;;;;;;;20.33;10.35;;;5.30;99.90;;;;;;5013032;28;20057;-68
2022/11/28 06:06:18;;;;;;;30.27;10.48;;;5.30;99.90;;;;;;5012339;28;20474;-69
2022/11/28 06:08:46;;;;;;;21.20;8.68;;;5.30;99.90;;;;;;5012701;28;20109;-70
2022/11/28 06:11:15;;;;;;;22.80;10.68;;;5.30;99.90;;;;;;5016051;28;20018;-69
2022/11/28 06:13:43;;;;;;;21.33;9.35;;;5.30;99.90;;;;;;5016536;28;20505;-68
2022/11/28 06:16:10;;;;;;;19.10;10.02;;;5.30;99.90;;;;;;5016173;28;20105;-68
2022/11/28 06:18:37;;;;;;;19.58;9.55;;;5.30;99.90;;;;;;5016263;28;20025;-69
2022/11/28 06:21:04;;;;;;;24.80;10.35;;;5.30;99.90;;;;;;5015635;28;20068;-69
2022/11/28 06:23:30;;;;;;;21.90;10.35;;;5.30;99.90;;;;;;5015690;28;20033;-69
2022/11/28 06:25:56;;;;;;;18.35;9.45;;;5.30;99.90;;;;;;5015973;28;20105;-69
2022/11/28 06:28:22;;;;;;;26.60;10.38;;;5.30;99.90;;;;;;5016062;28;20022;-69
2022/11/28 06:30:47;;;;;;;23.95;10.63;;;5.30;99.90;;;;;;5016392;28;20037;-69
2022/11/28 06:33:13;;;;;;;24.98;10.27;;;5.30;99.90;;;;;;5015234;28;20029;-69
2022/11/28 06:35:39;;;;;;;16.20;10.13;;;5.30;99.90;;;;;;5016315;28;20018;-69
2022/11/28 06:38:04;;;;;;;16.05;10.10;;;5.20;99.90;;;;;;5015905;28;20504;-69
2022/11/28 06:40:30;;;;;;;21.35;10.02;;;5.20;99.90;;;;;;5015006;28;20397;-69
2022/11/28 06:42:55;;;;;;;22.67;10.48;;;5.20;99.90;;;;;;5015897;28;20029;-69
2022/11/28 06:45:21;;;;;;;22.45;10.80;;;5.20;99.90;;;;;;5015504;28;20032;-69
2022/11/28 06:47:47;;;;;;;19.27;10.02;;;5.20;99.90;;;;;;5015482;28;20477;-69
2022/11/28 06:50:12;;;;;;;19.13;10.70;;;5.20;99.90;;;;;;5015855;28;20022;-69
2022/11/28 06:52:38;;;;;;;16.85;9.95;;;5.20;99.90;;;;;;5015713;28;20029;-69
2022/11/28 06:55:04;;;;;;;27.48;10.02;;;5.20;99.90;;;;;;5015337;28;20036;-70
2022/11/28 06:57:31;;;;;;;19.05;10.50;;;5.20;99.90;;;;;;5015905;28;20018;-70
2022/11/28 06:59:57;;;;;;;21.83;11.48;;;5.20;99.90;;;;;;5015810;28;20045;-70
2022/11/28 07:02:23;;;;;;;22.08;10.80;;;5.20;99.90;;;;;;5014982;28;20034;-69
2022/11/28 07:04:49;;;;;;;20.27;10.45;;;5.20;99.90;;;;;;5016046;28;20033;-70
2022/11/28 07:07:15;;;;;;;23.33;10.63;;;5.20;99.90;;;;;;5015827;28;20030;-70
2022/11/28 07:09:41;;;;;;;25.05;10.23;;;5.20;99.90;;;;;;5015735;28;20580;-70
2022/11/28 07:12:07;;;;;;;25.33;11.25;;;5.10;99.90;;;;;;5015654;28;20034;-70
2022/11/28 07:14:33;;;;;;;20.90;11.65;;;5.20;99.90;;;;;;5014719;28;20049;-69
2022/11/28 07:16:58;;;;;;;24.83;11.63;;;5.20;99.90;;;;;;5015067;28;20022;-69
2022/11/28 07:19:24;;;;;;;21.70;10.95;;;5.10;99.90;;;;;;5015000;28;20037;-68
2022/11/28 07:21:50;;;;;;;18.05;11.10;;;5.20;99.90;;;;;;5014184;28;20029;-69
2022/11/28 07:24:17;;;;;;;29.85;12.05;;;5.20;99.90;;;;;;5014918;28;20065;-68
2022/11/28 07:26:43;;;;;;;20.33;10.50;;;5.20;99.90;;;;;;5015296;28;20022;-69
2022/11/28 07:29:14;;;;;;;19.77;10.50;;;5.10;99.90;;;;;;5015046;28;20030;-69
2022/11/28 07:31:40;;;;;;;20.55;10.68;;;5.20;99.90;;;;;;5015141;28;20054;-68
2022/11/28 07:34:05;;;;;;;21.88;11.27;;;5.10;99.90;;;;;;5014466;28;20397;-69
2022/11/28 07:36:31;;;;;;;26.70;11.73;;;5.10;99.90;;;;;;5014553;28;20045;-69
2022/11/28 07:38:59;;;;;;;22.20;11.18;;;5.10;99.90;;;;;;5014586;28;20033;-69
2022/11/28 07:41:25;;;;;;;23.13;11.32;;;5.10;99.90;;;;;;5015036;28;20022;-69
2022/11/28 07:43:54;;;;;;;20.63;12.48;;;5.10;99.90;;;;;;5013278;28;20029;-69
2022/11/28 07:46:20;;;;;;;28.13;11.35;;;5.20;99.90;;;;;;5014657;28;20098;-69
2022/11/28 07:48:47;;;;;;;20.88;10.60;;;5.20;99.90;;;;;;5014745;28;20029;-69
2022/11/28 07:51:15;;;;;;;25.88;10.75;;;5.20;99.90;;;;;;5013075;28;20401;-68
2022/11/28 07:53:41;;;;;;;23.52;10.80;;;5.20;99.90;;;;;;5014479;28;20491;-69
2022/11/28 07:56:12;;;;;;;18.85;10.68;;;5.20;99.90;;;;;;5014509;28;20043;-68
2022/11/28 07:58:37;;;;;;;19.15;10.30;;;5.30;99.90;;;;;;5014039;28;20025;-68
2022/11/28 08:01:15;;;;;;;21.38;11.50;;;5.30;99.90;;;;;;5014212;28;20086;-68
2022/11/28 08:03:41;;;;;;;24.30;11.57;;;5.30;99.90;;;;;;5013046;28;20112;-69
2022/11/28 08:06:07;;;;;;;21.30;11.38;;;5.30;99.90;;;;;;5014325;28;20581;-69
2022/11/28 08:08:33;;;;;;;27.23;12.05;;;5.30;99.90;;;;;;5014237;28;20026;-68
2022/11/28 08:11:03;;;;;;;20.33;11.90;;;5.30;99.90;;;;;;5014598;28;20470;-68
2022/11/28 08:13:29;;;;;;;24.80;11.48;;;5.30;99.90;;;;;;5013652;28;20032;-68
2022/11/28 08:15:54;;;;;;;26.73;12.57;;;5.30;99.90;;;;;;5014178;28;20025;-69
2022/11/28 08:18:20;;;;;;;20.77;11.10;;;5.30;99.90;;;;;;5013912;28;20038;-68
2022/11/28 08:20:45;;;;;;;22.30;11.25;;;5.30;99.90;;;;;;5014283;28;20058;-68
2022/11/28 08:23:11;;;;;;;25.17;11.82;;;5.30;99.90;;;;;;5013917;28;20061;-68
2022/11/28 08:25:37;;;;;;;21.63;11.48;;;5.30;99.90;;;;;;5013461;28;20030;-68
2022/11/28 08:28:05;;;;;;;28.38;11.20;;;5.30;99.90;;;;;;5013794;28;20029;-68
2022/11/28 08:30:30;;;;;;;30.67;12.27;;;5.30;99.90;;;;;;5013907;28;20072;-68
2022/11/28 08:32:56;;;;;;;28.00;12.73;;;5.30;99.90;;;;;;5013465;28;20042;-69
2022/11/28 08:35:22;;;;;;;22.90;12.32;;;5.30;99.90;;;;;;5013890;28;20033;-69
2022/11/28 08:37:47;;;;;;;23.17;12.40;;;5.20;99.90;;;;;;5013529;28;20029;-68
2022/11/28 08:40:13;;;;;;;30.17;12.35;;;5.20;99.90;;;;;;5013088;28;20498;-68
2022/11/28 08:42:39;;;;;;;20.52;12.30;;;5.10;99.90;;;;;;5014114;28;20176;-69
2022/11/28 08:45:05;;;;;;;28.80;11.90;;;5.20;99.90;;;;;;5013910;28;20030;-68
2022/11/28 08:47:31;;;;;;;25.35;12.45;;;5.20;99.90;;;;;;5013820;28;20026;-69
2022/11/28 08:49:57;;;;;;;27.35;12.30;;;5.20;99.90;;;;;;5013479;28;20034;-68
2022/11/28 08:52:23;;;;;;;22.85;11.65;;;5.20;99.90;;;;;;5013272;28;20029;-69
2022/11/28 08:54:48;;;;;;;24.45;13.52;;;5.20;99.90;;;;;;5013808;28;20398;-69
2022/11/28 08:57:14;;;;;;;33.15;12.80;;;5.10;99.90;;;;;;5013835;28;20080;-69
2022/11/28 08:59:39;;;;;;;25.08;12.52;;;5.10;99.90;;;;;;5013558;28;20030;-69
2022/11/28 09:02:05;;;;;;;28.67;13.60;;;5.10;99.90;;;;;;5013063;28;20026;-69
2022/11/28 09:04:30;;;;;;;30.42;13.35;;;5.10;99.90;;;;;;5013602;28;20508;-69
2022/11/28 09:06:56;;;;;;;30.50;13.32;;;5.10;99.90;;;;;;5013522;28;20057;-69
2022/11/28 09:09:22;;;;;;;30.35;12.75;;;5.10;99.90;;;;;;5013579;28;20034;-69
2022/11/28 09:11:47;;;;;;;27.58;13.65;;;5.10;99.90;;;;;;5013734;28;20049;-69
2022/11/28 09:14:13;;;;;;;27.58;14.45;;;5.00;99.90;;;;;;5013809;28;20029;-69
2022/11/28 09:16:39;;;;;;;36.22;14.80;;;5.00;99.90;;;;;;5012790;28;20075;-68
2022/11/28 09:19:05;;;;;;;33.63;13.85;;;5.00;99.90;;;;;;5013277;28;20045;-69
2022/11/28 09:21:31;;;;;;;34.28;14.90;;;5.00;99.90;;;;;;5012015;28;20037;-69
2022/11/28 09:23:57;;;;;;;28.63;13.43;;;5.00;99.90;;;;;;5013336;28;20030;-69
2022/11/28 09:26:24;;;;;;;32.22;16.13;;;5.00;99.90;;;;;;5013092;28;20026;-69
2022/11/28 09:28:49;;;;;;;34.80;14.68;;;5.00;99.90;;;;;;5013173;28;20108;-69
2022/11/28 09:31:17;;;;;;;26.80;14.40;;;5.00;99.90;;;;;;5013383;28;20060;-69
2022/11/28 09:33:42;;;;;;;29.67;14.43;;;5.10;99.90;;;;;;5013529;28;20433;-69
2022/11/28 09:36:13;;;;;;;23.02;13.27;;;5.10;99.90;;;;;;5013575;28;20034;-69
2022/11/28 09:38:39;;;;;;;34.40;16.20;;;5.10;99.90;;;;;;5013021;28;20028;-69
2022/11/28 09:41:44;;;;;;;27.85;14.93;;;5.10;99.90;;;;;;5012767;28;20034;-69
2022/11/28 09:44:24;;;;;;;32.50;16.85;;;5.10;99.90;;;;;;5015249;28;20428;-69
2022/11/28 09:46:54;;;;;;;31.55;15.43;;;5.10;99.90;;;;;;5016916;28;20025;-69
2022/11/28 09:49:38;;;;;;;31.33;15.77;;;5.10;99.90;;;;;;5017375;28;20464;-69
2022/11/28 09:52:15;;;;;;;30.35;15.15;;;5.10;99.90;;;;;;5017152;28;20014;-69
2022/11/28 09:54:50;;;;;;;39.72;17.10;;;5.10;99.90;;;;;;5016821;28;20037;-69
2022/11/28 09:57:31;;;;;;;36.92;17.23;;;5.10;99.90;;;;;;4998627;28;20112;-69
2022/11/28 09:59:56;;;;;;;34.03;16.35;;;5.10;99.90;;;;;;4997184;28;20081;-69
2022/11/28 10:02:38;;;;;;;35.60;18.60;;;5.10;99.90;;;;;;4997048;28;20038;-69
2022/11/28 10:05:10;;;;;;;29.27;16.67;;;5.10;99.90;;;;;;4996496;28;20037;-69
2022/11/28 10:08:17;;;;;;;28.50;16.77;;;5.10;99.90;;;;;;4997185;28;20545;-69
2022/11/28 10:11:11;;;;;;;27.95;16.50;;;5.10;99.90;;;;;;4999114;28;20035;-69
2022/11/28 10:13:45;;;;;;;;;;;5.10;99.90;;;;;;5016441;28;20080;-69
2022/11/28 10:16:18;;;;;;;;;;;5.10;99.90;;;;;;5016892;28;19905;-69
2022/11/28 10:18:59;;;;;;;35.53;16.98;;;5.10;99.90;;;;;;5016364;28;19913;-69
2022/11/28 10:21:42;;;;;;;32.33;17.15;;;5.10;99.90;;;;;;5016883;28;20474;-69
2022/11/28 10:24:16;;;;;;;33.75;17.73;;;5.10;99.90;;;;;;5016079;28;20037;-69
2022/11/28 10:26:52;;;;;;;30.70;16.65;;;5.10;99.90;;;;;;5015821;28;20105;-69
2022/11/28 10:29:45;;;;;;;42.92;17.55;;;5.10;99.90;;;;;;5016176;28;20025;-69
2022/11/28 10:32:16;;;;;;;36.57;17.67;;;5.10;99.90;;;;;;5016452;28;20096;-69
2022/11/28 10:35:00;;;;;;;36.67;18.05;;;5.10;99.90;;;;;;5016161;28;20022;-69
2022/11/28 10:37:31;;;;;;;36.03;18.67;;;5.10;99.90;;;;;;5016617;28;20029;-69
2022/11/28 10:40:18;;;;;;;38.15;18.27;;;5.10;99.90;;;;;;5015886;28;20370;-69
2022/11/28 10:42:55;;;;;;;37.85;19.52;;;5.10;99.90;;;;;;5015967;28;20033;-69
2022/11/28 10:45:34;;;;;;;35.13;17.70;;;5.10;99.90;;;;;;5015247;28;20512;-69
2022/11/28 10:48:07;;;;;;;33.45;17.92;;;5.10;99.90;;;;;;5016012;28;20478;-69
2022/11/28 10:50:56;;;;;;;38.47;18.87;;;5.10;99.90;;;;;;5015715;28;20052;-69
2022/11/28 10:53:31;;;;;;;45.10;18.40;;;5.10;99.90;;;;;;5015023;28;20269;-69
2022/11/28 10:56:15;;;;;;;33.42;17.90;;;5.10;99.90;;;;;;5014756;28;20030;-69
2022/11/28 10:58:56;;;;;;;39.10;19.27;;;5.10;99.90;;;;;;5015985;28;20018;-69
2022/11/28 11:01:21;;;;;;;35.35;17.98;;;5.10;99.90;;;;;;5015552;28;20141;-69
2022/11/28 11:03:47;;;;;;;38.53;19.65;;;5.10;99.90;;;;;;5015955;28;20108;-69
2022/11/28 11:06:13;;;;;;;38.05;18.02;;;5.10;99.90;;;;;;5015047;28;20017;-69
2022/11/28 11:08:40;;;;;;;38.00;19.58;;;5.10;99.90;;;;;;5015407;28;20478;-68
2022/11/28 11:11:17;;;;;;;30.55;17.58;;;5.10;99.90;;;;;;5015102;28;20089;-69
2022/11/28 11:14:02;;;;;;;40.05;18.83;;;5.10;99.90;;;;;;5015176;28;20109;-69
2022/11/28 11:16:50;;;;;;;35.30;18.95;;;5.00;99.90;;;;;;5015299;28;20030;-69
2022/11/28 11:19:37;;;;;;;38.10;20.83;;;5.10;99.90;;;;;;5121427;23;20049;-69
2022/11/28 11:22:25;;;;;;;34.88;18.42;;;5.00;99.90;;;;;;5034668;28;20017;-69
2022/11/28 11:25:05;;;;;;;33.60;19.65;;;5.00;99.90;;;;;;5034436;28;20017;-69
2022/11/28 11:27:31;;;;;;;34.45;18.30;;;5.10;99.90;;;;;;5033890;28;20880;-69
2022/11/28 11:29:57;;;;;;;39.47;18.85;;;5.00;99.90;;;;;;5034357;28;20036;-69
2022/11/28 11:32:26;;;;;;;36.58;19.33;;;5.00;99.90;;;;;;5034272;28;20032;-69
2022/11/28 11:34:53;;;;;;;41.97;19.02;;;5.00;99.90;;;;;;5034441;28;20493;-69
2022/11/28 11:37:35;;;;;;;39.08;19.33;;;5.00;99.90;;;;;;5034410;28;20033;-69
2022/11/28 11:40:16;;;;;;;36.38;19.25;;;5.10;99.90;;;;;;5034648;28;20362;-69
2022/11/28 11:42:54;;;;;;;35.30;18.40;;;5.10;99.90;;;;;;5034017;28;20079;-69
2022/11/28 11:45:28;;;;;;;39.30;20.55;;;5.00;99.90;;;;;;5034373;28;20112;-70
2022/11/28 11:47:54;;;;;;;41.15;19.85;;;5.10;99.90;;;;;;5034496;28;20028;-71
2022/11/28 11:50:23;;;;;;;36.75;19.58;;;5.00;99.90;;;;;;5034430;28;20026;-71
2022/11/28 11:53:05;;;;;;;47.30;20.27;;;5.10;99.90;;;;;;5034080;28;20504;-71
2022/11/28 11:55:38;;;;;;;37.72;19.55;;;5.10;99.90;;;;;;5015921;28;20063;-71
2022/11/28 11:58:05;;;;;;;37.55;19.23;;;5.10;99.90;;;;;;5034689;28;20489;-71
2022/11/28 12:00:38;;;;;;;37.60;19.85;;;5.10;99.90;;;;;;5033714;28;20033;-71
2022/11/28 12:03:56;;;;;;;39.05;20.30;;;5.10;99.90;;;;;;5034013;28;20021;-71
2022/11/28 12:06:28;;;;;;;40.08;20.75;;;5.10;99.90;;;;;;4978180;28;20076;-71
2022/11/28 12:09:30;;;;;;;39.13;19.48;;;5.00;99.90;;;;;;5033655;28;20037;-71
2022/11/28 12:12:04;;;;;;;43.65;19.13;;;5.00;99.90;;;;;;5034043;28;20508;-71
2022/11/28 12:14:33;;;;;;;;;;;5.00;99.90;;;;;;5016042;28;20033;-71
2022/11/28 12:17:05;;;;;;;41.85;20.85;;;5.00;99.90;;;;;;5034006;28;19905;-70
2022/11/28 12:19:53;;;;;;;35.55;19.42;;;5.10;99.90;;;;;;5033608;28;20116;-70
2022/11/28 12:22:50;;;;;;;43.97;20.48;;;5.10;99.90;;;;;;5033546;28;20057;-71
2022/11/28 12:25:31;;;;;;;34.45;19.38;;;5.00;99.90;;;;;;5006621;28;20041;-71
2022/11/28 12:28:33;;;;;;;45.20;19.90;;;5.10;99.90;;;;;;5033542;28;20104;-71
2022/11/28 12:31:19;;;;;;;44.60;20.00;;;5.00;99.90;;;;;;5015745;28;20136;-70
2022/11/28 12:34:03;;;;;;;38.13;19.63;;;5.00;99.90;;;;;;5015205;28;20108;-71
2022/11/28 12:36:37;;;;;;;48.20;20.88;;;5.00;99.90;;;;;;5033435;28;20021;-71
2022/11/28 12:39:23;;;;;;;43.28;20.65;;;5.00;99.90;;;;;;5015803;28;20399;-71
2022/11/28 12:42:08;;;;;;;38.03;21.52;;;5.00;99.90;;;;;;5033739;28;20481;-71
2022/11/28 12:44:57;;;;;;;42.33;20.08;;;5.00;99.90;;;;;;5033298;28;20029;-70
2022/11/28 12:47:23;;;;;;;33.75;19.77;;;5.00;99.90;;;;;;5032856;28;20385;-70
2022/11/28 12:50:13;;;;;;;45.95;22.13;;;5.00;99.90;;;;;;5015543;28;20033;-70
2022/11/28 12:53:02;;;;;;;45.88;20.30;;;5.00;99.90;;;;;;5033548;28;20025;-71
2022/11/28 12:55:32;;;;;;;43.75;20.25;;;5.00;99.90;;;;;;5032607;28;20061;-70
2022/11/28 12:58:26;;;;;;;38.90;21.05;;;5.00;99.90;;;;;;5033164;28;20071;-71
2022/11/28 13:01:29;;;;;;;40.65;18.58;;;5.00;99.90;;;;;;5033159;28;20096;-70
2022/11/28 13:04:32;;;;;;;45.17;19.58;;;5.00;99.90;;;;;;5033109;28;20036;-71